Yel'nya, Russia
Current Conditions -  °F | °C
As of 8:00 PM on Sunday 23 Nov 2014 (Local Time) from UUBW Reporting Station
Haze Haze  
Wind Chill: 25°   Ceiling: 1600
Heat Index: 30°   Visibility: 3mi
Dew Point: 25°   Wind: 4mph
Humidity: 80%   Direction: 360°N
Pressure: 30.53"   Gusts: NA
Location:  55.52°N, 34.48°E
Report Text: UUBW 231700Z 36002MPS 5000 BR BKN016 M01/M04 Q1034 NOSIG
Loading
Personal Weather Stations






























Interactive Weather Map New forecast layout! Learn more

10-Day Weather Forecast

Advertisements
Track Severe Weather on mobile